This is the latest recevied weather packets stored in our database for station/object W1RCY. If no packets are shown the sender has not sent any weather packets the latest 10 day(s).
| Time | Temp. | Humidity | Pressure | Rain* | Wind** | Luminosity | Snow |
|---|---|---|---|---|---|---|---|
| 1777499436 | 9.44° C | 84% | 1012.5 hPa | 0 mm | - | 70 W/m² | - |
| 1777499135 | 9.44° C | 84% | 1012.4 hPa | 0 mm | - | 70 W/m² | - |
| 1777498831 | 10° C | 84% | 1012.5 hPa | 0 mm | - | 65 W/m² | - |
| 1777498528 | 10° C | 83% | 1012.6 hPa | 0 mm | - | 66 W/m² | - |
| 1777498224 | 10.56° C | 81% | 1012.4 hPa | 0 mm | - | 80 W/m² | - |
| 1777497923 | 10.56° C | 81% | 1012.4 hPa | 0 mm | - | 110 W/m² | - |
| 1777497618 | 10.56° C | 82% | 1012.4 hPa | 0 mm | - | 132 W/m² | - |
| 1777497315 | 11.11° C | 79% | 1012.3 hPa | 0 mm | - | 138 W/m² | - |
| 1777497010 | 11.11° C | 78% | 1012.3 hPa | 0 mm | - | 156 W/m² | - |
| 1777496708 | 11.67° C | 79% | 1012.3 hPa | 0 mm | - | 193 W/m² | - |
| 1777496404 | 12.22° C | 76% | 1012.7 hPa | 0 mm | - | 300 W/m² | - |
| 1777496101 | 12.22° C | 76% | 1012.6 hPa | 0 mm | - | 210 W/m² | - |
| 1777495796 | 12.22° C | 76% | 1012.7 hPa | 0 mm | - | 303 W/m² | - |
| 1777495493 | 12.78° C | 74% | 1012.7 hPa | 0 mm | - | 273 W/m² | - |
| 1777495189 | 12.78° C | 74% | 1012.7 hPa | 0 mm | - | 277 W/m² | - |
| 1777494887 | 12.22° C | 77% | 1012.5 hPa | 0 mm | - | 301 W/m² | - |
| 1777494583 | 12.22° C | 76% | 1012.6 hPa | 0 mm | - | 294 W/m² | - |
| 1777494281 | 12.78° C | 75% | 1012.5 hPa | 0 mm | - | 229 W/m² | - |
| 1777493977 | 12.78° C | 75% | 1012.8 hPa | 0 mm | - | 262 W/m² | - |
| 1777493675 | 13.89° C | 73% | 1012.6 hPa | 0 mm | - | 294 W/m² | - |
| 1777493373 | 13.89° C | 71% | 1012.8 hPa | 0 mm | - | 474 W/m² | - |
| 1777493069 | 13.33° C | 73% | 1012.8 hPa | 0 mm | - | 337 W/m² | - |
| 1777492766 | 13.89° C | 70% | 1012.8 hPa | 0 mm | - | 329 W/m² | - |
| 1777492461 | 14.44° C | 70% | 1012.8 hPa | 0 mm | - | 360 W/m² | - |
| 1777492158 | 14.44° C | 69% | 1013 hPa | 0 mm | - | 592 W/m² | - |
* Rain latest hour (hover to see other rain measurements)
** Current wind speed in m/s (hover to see current wind gust speed)